sensor_id;sensor_type;location;lat;lon;timestamp;P1;durP1;ratioP1;P2;durP2;ratioP2
39620;SDS011;25309;48.686;9.170;2023-05-03T00:01:10;7.87;;;4.20;;
39620;SDS011;25309;48.686;9.170;2023-05-03T00:03:37;6.57;;;4.10;;
39620;SDS011;25309;48.686;9.170;2023-05-03T00:06:08;5.57;;;4.40;;
39620;SDS011;25309;48.686;9.170;2023-05-03T00:08:36;5.13;;;3.60;;
39620;SDS011;25309;48.686;9.170;2023-05-03T00:11:03;5.50;;;4.07;;
39620;SDS011;25309;48.686;9.170;2023-05-03T00:13:32;5.53;;;3.93;;
39620;SDS011;25309;48.686;9.170;2023-05-03T00:15:59;6.70;;;3.70;;
39620;SDS011;25309;48.686;9.170;2023-05-03T00:18:26;4.90;;;4.10;;
39620;SDS011;25309;48.686;9.170;2023-05-03T00:20:53;5.03;;;3.97;;
39620;SDS011;25309;48.686;9.170;2023-05-03T00:23:20;5.70;;;4.10;;
39620;SDS011;25309;48.686;9.170;2023-05-03T00:25:50;5.00;;;3.67;;
39620;SDS011;25309;48.686;9.170;2023-05-03T00:28:17;7.07;;;4.27;;
39620;SDS011;25309;48.686;9.170;2023-05-03T00:30:46;6.57;;;4.27;;
39620;SDS011;25309;48.686;9.170;2023-05-03T00:33:13;6.60;;;4.07;;
39620;SDS011;25309;48.686;9.170;2023-05-03T00:35:40;4.80;;;4.10;;
39620;SDS011;25309;48.686;9.170;2023-05-03T00:38:07;5.43;;;4.00;;
39620;SDS011;25309;48.686;9.170;2023-05-03T00:40:34;5.37;;;4.53;;
39620;SDS011;25309;48.686;9.170;2023-05-03T00:43:01;6.50;;;3.90;;
39620;SDS011;25309;48.686;9.170;2023-05-03T00:45:28;5.53;;;4.00;;
39620;SDS011;25309;48.686;9.170;2023-05-03T00:47:57;4.83;;;3.70;;
39620;SDS011;25309;48.686;9.170;2023-05-03T00:50:24;5.27;;;3.50;;
39620;SDS011;25309;48.686;9.170;2023-05-03T00:52:52;4.83;;;3.63;;
39620;SDS011;25309;48.686;9.170;2023-05-03T00:55:19;6.47;;;3.80;;
39620;SDS011;25309;48.686;9.170;2023-05-03T00:57:46;5.00;;;3.53;;
39620;SDS011;25309;48.686;9.170;2023-05-03T01:00:14;4.93;;;3.70;;
39620;SDS011;25309;48.686;9.170;2023-05-03T01:02:43;6.53;;;3.73;;
39620;SDS011;25309;48.686;9.170;2023-05-03T01:05:11;5.40;;;4.07;;
39620;SDS011;25309;48.686;9.170;2023-05-03T01:07:39;6.20;;;3.93;;
39620;SDS011;25309;48.686;9.170;2023-05-03T01:10:14;5.13;;;3.70;;
39620;SDS011;25309;48.686;9.170;2023-05-03T01:12:51;5.77;;;4.30;;
39620;SDS011;25309;48.686;9.170;2023-05-03T01:15:24;5.37;;;3.50;;
39620;SDS011;25309;48.686;9.170;2023-05-03T01:18:05;5.97;;;3.90;;
39620;SDS011;25309;48.686;9.170;2023-05-03T01:20:39;5.97;;;4.03;;
39620;SDS011;25309;48.686;9.170;2023-05-03T01:23:10;5.03;;;4.00;;
39620;SDS011;25309;48.686;9.170;2023-05-03T01:25:41;5.90;;;4.00;;
39620;SDS011;25309;48.686;9.170;2023-05-03T01:28:08;6.47;;;3.97;;
39620;SDS011;25309;48.686;9.170;2023-05-03T01:30:35;5.97;;;4.40;;
39620;SDS011;25309;48.686;9.170;2023-05-03T01:33:07;5.20;;;3.87;;
39620;SDS011;25309;48.686;9.170;2023-05-03T01:35:39;4.90;;;3.50;;
39620;SDS011;25309;48.686;9.170;2023-05-03T01:38:07;5.53;;;4.00;;
39620;SDS011;25309;48.686;9.170;2023-05-03T01:40:37;5.83;;;4.10;;
39620;SDS011;25309;48.686;9.170;2023-05-03T01:43:10;4.93;;;3.77;;
39620;SDS011;25309;48.686;9.170;2023-05-03T01:45:38;5.83;;;4.17;;
39620;SDS011;25309;48.686;9.170;2023-05-03T01:48:09;6.50;;;4.30;;
39620;SDS011;25309;48.686;9.170;2023-05-03T01:50:37;5.27;;;4.07;;
39620;SDS011;25309;48.686;9.170;2023-05-03T01:53:04;5.07;;;4.20;;
39620;SDS011;25309;48.686;9.170;2023-05-03T01:55:31;6.30;;;4.30;;
39620;SDS011;25309;48.686;9.170;2023-05-03T01:57:58;5.80;;;3.70;;
39620;SDS011;25309;48.686;9.170;2023-05-03T02:00:26;5.50;;;4.10;;
39620;SDS011;25309;48.686;9.170;2023-05-03T02:02:53;4.90;;;3.73;;
39620;SDS011;25309;48.686;9.170;2023-05-03T02:05:20;5.53;;;3.83;;
39620;SDS011;25309;48.686;9.170;2023-05-03T02:07:47;7.00;;;4.33;;
39620;SDS011;25309;48.686;9.170;2023-05-03T02:10:14;6.57;;;4.50;;
39620;SDS011;25309;48.686;9.170;2023-05-03T02:12:41;5.57;;;4.10;;
39620;SDS011;25309;48.686;9.170;2023-05-03T02:15:09;6.23;;;4.53;;
39620;SDS011;25309;48.686;9.170;2023-05-03T02:17:38;5.70;;;4.20;;
39620;SDS011;25309;48.686;9.170;2023-05-03T02:20:06;5.90;;;4.40;;
39620;SDS011;25309;48.686;9.170;2023-05-03T02:22:35;5.93;;;4.43;;
39620;SDS011;25309;48.686;9.170;2023-05-03T02:25:02;6.40;;;4.20;;
39620;SDS011;25309;48.686;9.170;2023-05-03T02:27:30;5.67;;;4.20;;
39620;SDS011;25309;48.686;9.170;2023-05-03T02:29:57;5.33;;;4.20;;
39620;SDS011;25309;48.686;9.170;2023-05-03T02:32:25;6.53;;;4.50;;
39620;SDS011;25309;48.686;9.170;2023-05-03T02:34:53;5.50;;;4.03;;
39620;SDS011;25309;48.686;9.170;2023-05-03T02:37:22;5.47;;;4.27;;
39620;SDS011;25309;48.686;9.170;2023-05-03T02:39:50;5.83;;;4.50;;
39620;SDS011;25309;48.686;9.170;2023-05-03T02:42:17;6.10;;;4.40;;
39620;SDS011;25309;48.686;9.170;2023-05-03T02:44:44;7.47;;;4.60;;
39620;SDS011;25309;48.686;9.170;2023-05-03T02:47:11;5.73;;;4.30;;
39620;SDS011;25309;48.686;9.170;2023-05-03T02:49:40;6.77;;;4.50;;
39620;SDS011;25309;48.686;9.170;2023-05-03T02:52:09;6.17;;;4.47;;
39620;SDS011;25309;48.686;9.170;2023-05-03T02:54:36;6.30;;;4.63;;
39620;SDS011;25309;48.686;9.170;2023-05-03T02:57:08;5.07;;;4.17;;
39620;SDS011;25309;48.686;9.170;2023-05-03T02:59:36;5.97;;;4.07;;
39620;SDS011;25309;48.686;9.170;2023-05-03T03:02:03;6.07;;;4.47;;
39620;SDS011;25309;48.686;9.170;2023-05-03T03:04:32;7.10;;;4.10;;
39620;SDS011;25309;48.686;9.170;2023-05-03T03:06:59;6.70;;;4.20;;
39620;SDS011;25309;48.686;9.170;2023-05-03T03:09:27;6.33;;;4.77;;
39620;SDS011;25309;48.686;9.170;2023-05-03T03:11:54;6.87;;;4.80;;
39620;SDS011;25309;48.686;9.170;2023-05-03T03:14:21;6.00;;;4.60;;
39620;SDS011;25309;48.686;9.170;2023-05-03T03:16:50;6.50;;;5.03;;
39620;SDS011;25309;48.686;9.170;2023-05-03T03:19:17;7.40;;;5.10;;
39620;SDS011;25309;48.686;9.170;2023-05-03T03:21:44;6.70;;;5.23;;
39620;SDS011;25309;48.686;9.170;2023-05-03T03:24:11;8.00;;;5.20;;
39620;SDS011;25309;48.686;9.170;2023-05-03T03:26:40;7.43;;;5.23;;
39620;SDS011;25309;48.686;9.170;2023-05-03T03:29:07;8.80;;;4.73;;
39620;SDS011;25309;48.686;9.170;2023-05-03T03:31:40;8.17;;;5.47;;
39620;SDS011;25309;48.686;9.170;2023-05-03T03:34:07;7.80;;;5.27;;
39620;SDS011;25309;48.686;9.170;2023-05-03T03:36:34;7.33;;;5.77;;
39620;SDS011;25309;48.686;9.170;2023-05-03T03:39:03;6.97;;;5.50;;
39620;SDS011;25309;48.686;9.170;2023-05-03T03:41:33;6.80;;;5.17;;
39620;SDS011;25309;48.686;9.170;2023-05-03T03:44:02;7.90;;;5.27;;
39620;SDS011;25309;48.686;9.170;2023-05-03T03:46:29;7.40;;;5.30;;
39620;SDS011;25309;48.686;9.170;2023-05-03T03:48:57;6.47;;;4.93;;
39620;SDS011;25309;48.686;9.170;2023-05-03T03:51:27;8.27;;;5.43;;
39620;SDS011;25309;48.686;9.170;2023-05-03T03:53:54;6.73;;;5.10;;
39620;SDS011;25309;48.686;9.170;2023-05-03T03:56:23;7.03;;;5.27;;
39620;SDS011;25309;48.686;9.170;2023-05-03T03:58:53;7.93;;;5.07;;
39620;SDS011;25309;48.686;9.170;2023-05-03T04:01:21;8.00;;;5.40;;
39620;SDS011;25309;48.686;9.170;2023-05-03T04:03:49;9.47;;;5.40;;
39620;SDS011;25309;48.686;9.170;2023-05-03T04:06:16;7.70;;;5.27;;
39620;SDS011;25309;48.686;9.170;2023-05-03T04:08:44;8.70;;;5.67;;
39620;SDS011;25309;48.686;9.170;2023-05-03T04:11:13;8.50;;;5.73;;
39620;SDS011;25309;48.686;9.170;2023-05-03T04:13:47;7.77;;;5.63;;
39620;SDS011;25309;48.686;9.170;2023-05-03T04:16:14;10.10;;;6.50;;
39620;SDS011;25309;48.686;9.170;2023-05-03T04:18:44;9.07;;;6.43;;
39620;SDS011;25309;48.686;9.170;2023-05-03T04:21:12;10.10;;;6.03;;
39620;SDS011;25309;48.686;9.170;2023-05-03T04:23:40;7.50;;;5.90;;
39620;SDS011;25309;48.686;9.170;2023-05-03T04:26:09;9.17;;;6.33;;
39620;SDS011;25309;48.686;9.170;2023-05-03T04:28:56;9.27;;;6.07;;
39620;SDS011;25309;48.686;9.170;2023-05-03T04:31:23;8.43;;;6.33;;
39620;SDS011;25309;48.686;9.170;2023-05-03T04:33:54;10.07;;;6.60;;
39620;SDS011;25309;48.686;9.170;2023-05-03T04:36:24;8.93;;;6.43;;
39620;SDS011;25309;48.686;9.170;2023-05-03T04:38:53;11.33;;;6.60;;
39620;SDS011;25309;48.686;9.170;2023-05-03T04:41:21;9.30;;;6.77;;
39620;SDS011;25309;48.686;9.170;2023-05-03T04:43:50;11.27;;;7.70;;
39620;SDS011;25309;48.686;9.170;2023-05-03T04:46:17;9.97;;;6.80;;
39620;SDS011;25309;48.686;9.170;2023-05-03T04:48:45;9.87;;;6.80;;
39620;SDS011;25309;48.686;9.170;2023-05-03T04:51:13;9.93;;;7.20;;
39620;SDS011;25309;48.686;9.170;2023-05-03T04:53:42;10.83;;;6.87;;
39620;SDS011;25309;48.686;9.170;2023-05-03T04:56:13;11.00;;;6.60;;
39620;SDS011;25309;48.686;9.170;2023-05-03T04:58:42;10.40;;;7.27;;
39620;SDS011;25309;48.686;9.170;2023-05-03T05:01:11;11.80;;;7.53;;
39620;SDS011;25309;48.686;9.170;2023-05-03T05:03:38;9.87;;;6.83;;
39620;SDS011;25309;48.686;9.170;2023-05-03T05:06:10;9.80;;;6.60;;
39620;SDS011;25309;48.686;9.170;2023-05-03T05:08:40;10.23;;;6.27;;
39620;SDS011;25309;48.686;9.170;2023-05-03T05:11:10;10.80;;;6.50;;
39620;SDS011;25309;48.686;9.170;2023-05-03T05:13:39;10.60;;;7.00;;
39620;SDS011;25309;48.686;9.170;2023-05-03T05:16:06;10.40;;;6.87;;
39620;SDS011;25309;48.686;9.170;2023-05-03T05:18:34;8.27;;;6.23;;
39620;SDS011;25309;48.686;9.170;2023-05-03T05:21:04;12.50;;;7.17;;
39620;SDS011;25309;48.686;9.170;2023-05-03T05:23:32;10.87;;;7.43;;
39620;SDS011;25309;48.686;9.170;2023-05-03T05:26:01;9.50;;;6.80;;
39620;SDS011;25309;48.686;9.170;2023-05-03T05:28:29;9.70;;;6.77;;
39620;SDS011;25309;48.686;9.170;2023-05-03T05:30:58;10.73;;;7.30;;
39620;SDS011;25309;48.686;9.170;2023-05-03T05:33:25;10.37;;;6.63;;
39620;SDS011;25309;48.686;9.170;2023-05-03T05:35:53;11.03;;;6.40;;
39620;SDS011;25309;48.686;9.170;2023-05-03T05:38:20;9.93;;;7.07;;
39620;SDS011;25309;48.686;9.170;2023-05-03T05:40:50;8.93;;;6.67;;
39620;SDS011;25309;48.686;9.170;2023-05-03T05:43:19;11.73;;;6.87;;
39620;SDS011;25309;48.686;9.170;2023-05-03T05:45:47;9.30;;;7.17;;
39620;SDS011;25309;48.686;9.170;2023-05-03T05:48:14;11.43;;;7.17;;
39620;SDS011;25309;48.686;9.170;2023-05-03T05:50:43;10.23;;;7.00;;
39620;SDS011;25309;48.686;9.170;2023-05-03T05:53:11;10.27;;;6.70;;
39620;SDS011;25309;48.686;9.170;2023-05-03T05:55:44;9.37;;;7.10;;
39620;SDS011;25309;48.686;9.170;2023-05-03T05:58:11;10.23;;;7.23;;
39620;SDS011;25309;48.686;9.170;2023-05-03T06:00:45;9.60;;;7.20;;
39620;SDS011;25309;48.686;9.170;2023-05-03T06:03:15;10.73;;;7.17;;
39620;SDS011;25309;48.686;9.170;2023-05-03T06:05:42;10.90;;;6.97;;
39620;SDS011;25309;48.686;9.170;2023-05-03T06:08:09;12.90;;;7.80;;
39620;SDS011;25309;48.686;9.170;2023-05-03T06:10:37;11.60;;;8.10;;
39620;SDS011;25309;48.686;9.170;2023-05-03T06:13:05;10.90;;;8.07;;
39620;SDS011;25309;48.686;9.170;2023-05-03T06:15:33;10.20;;;7.87;;
39620;SDS011;25309;48.686;9.170;2023-05-03T06:18:01;10.93;;;7.70;;
39620;SDS011;25309;48.686;9.170;2023-05-03T06:20:29;13.33;;;7.90;;
39620;SDS011;25309;48.686;9.170;2023-05-03T06:22:57;9.53;;;7.50;;
39620;SDS011;25309;48.686;9.170;2023-05-03T06:25:24;11.43;;;8.73;;
39620;SDS011;25309;48.686;9.170;2023-05-03T06:27:52;13.73;;;8.93;;
39620;SDS011;25309;48.686;9.170;2023-05-03T06:30:22;13.53;;;8.57;;
39620;SDS011;25309;48.686;9.170;2023-05-03T06:32:51;12.70;;;8.30;;
39620;SDS011;25309;48.686;9.170;2023-05-03T06:35:20;11.83;;;8.57;;
39620;SDS011;25309;48.686;9.170;2023-05-03T06:37:47;11.57;;;8.70;;
39620;SDS011;25309;48.686;9.170;2023-05-03T06:40:14;11.33;;;8.93;;
39620;SDS011;25309;48.686;9.170;2023-05-03T06:42:42;12.73;;;9.27;;
39620;SDS011;25309;48.686;9.170;2023-05-03T06:45:24;13.93;;;9.53;;
39620;SDS011;25309;48.686;9.170;2023-05-03T06:47:51;11.00;;;8.67;;
39620;SDS011;25309;48.686;9.170;2023-05-03T06:50:20;12.70;;;8.73;;
39620;SDS011;25309;48.686;9.170;2023-05-03T06:52:47;11.90;;;8.53;;
39620;SDS011;25309;48.686;9.170;2023-05-03T06:55:14;14.07;;;8.90;;
39620;SDS011;25309;48.686;9.170;2023-05-03T06:57:42;12.20;;;8.57;;
39620;SDS011;25309;48.686;9.170;2023-05-03T07:00:09;13.27;;;8.60;;
39620;SDS011;25309;48.686;9.170;2023-05-03T07:02:37;11.73;;;8.67;;
39620;SDS011;25309;48.686;9.170;2023-05-03T07:05:04;11.00;;;8.70;;
39620;SDS011;25309;48.686;9.170;2023-05-03T07:07:33;12.47;;;9.13;;
39620;SDS011;25309;48.686;9.170;2023-05-03T07:10:01;15.57;;;9.83;;
39620;SDS011;25309;48.686;9.170;2023-05-03T07:12:29;11.63;;;9.17;;
39620;SDS011;25309;48.686;9.170;2023-05-03T07:14:57;12.20;;;8.70;;
39620;SDS011;25309;48.686;9.170;2023-05-03T07:17:24;12.70;;;9.33;;
39620;SDS011;25309;48.686;9.170;2023-05-03T07:19:51;13.60;;;9.60;;
39620;SDS011;25309;48.686;9.170;2023-05-03T07:22:18;10.30;;;8.47;;
39620;SDS011;25309;48.686;9.170;2023-05-03T07:24:53;12.93;;;9.10;;
39620;SDS011;25309;48.686;9.170;2023-05-03T07:27:22;11.50;;;8.37;;
39620;SDS011;25309;48.686;9.170;2023-05-03T07:29:49;11.23;;;8.67;;
39620;SDS011;25309;48.686;9.170;2023-05-03T07:32:16;12.93;;;8.40;;
39620;SDS011;25309;48.686;9.170;2023-05-03T07:34:44;11.53;;;8.70;;
39620;SDS011;25309;48.686;9.170;2023-05-03T07:37:11;11.70;;;8.73;;
39620;SDS011;25309;48.686;9.170;2023-05-03T07:39:38;11.97;;;8.63;;
39620;SDS011;25309;48.686;9.170;2023-05-03T07:42:07;12.90;;;9.47;;
39620;SDS011;25309;48.686;9.170;2023-05-03T07:44:35;12.73;;;9.10;;
39620;SDS011;25309;48.686;9.170;2023-05-03T07:47:02;12.63;;;9.23;;
39620;SDS011;25309;48.686;9.170;2023-05-03T07:49:29;11.70;;;8.30;;
39620;SDS011;25309;48.686;9.170;2023-05-03T07:52:00;11.27;;;7.97;;
39620;SDS011;25309;48.686;9.170;2023-05-03T07:54:28;11.40;;;8.70;;
39620;SDS011;25309;48.686;9.170;2023-05-03T07:56:55;11.90;;;8.83;;
39620;SDS011;25309;48.686;9.170;2023-05-03T07:59:23;11.27;;;8.40;;
39620;SDS011;25309;48.686;9.170;2023-05-03T08:01:50;12.60;;;8.17;;
39620;SDS011;25309;48.686;9.170;2023-05-03T08:04:17;11.27;;;8.50;;
39620;SDS011;25309;48.686;9.170;2023-05-03T08:06:45;11.50;;;7.60;;
39620;SDS011;25309;48.686;9.170;2023-05-03T08:09:11;10.77;;;7.93;;
39620;SDS011;25309;48.686;9.170;2023-05-03T08:11:39;10.90;;;7.77;;
39620;SDS011;25309;48.686;9.170;2023-05-03T08:14:09;10.63;;;8.47;;
39620;SDS011;25309;48.686;9.170;2023-05-03T08:16:38;11.07;;;8.60;;
39620;SDS011;25309;48.686;9.170;2023-05-03T08:19:05;11.00;;;8.73;;
39620;SDS011;25309;48.686;9.170;2023-05-03T08:21:33;10.23;;;8.07;;
39620;SDS011;25309;48.686;9.170;2023-05-03T08:24:00;11.57;;;8.47;;
39620;SDS011;25309;48.686;9.170;2023-05-03T08:26:27;10.90;;;8.00;;
39620;SDS011;25309;48.686;9.170;2023-05-03T08:28:56;8.40;;;7.47;;
39620;SDS011;25309;48.686;9.170;2023-05-03T08:31:23;11.63;;;8.00;;
39620;SDS011;25309;48.686;9.170;2023-05-03T08:33:51;10.70;;;8.07;;
39620;SDS011;25309;48.686;9.170;2023-05-03T08:36:18;12.77;;;9.70;;
39620;SDS011;25309;48.686;9.170;2023-05-03T08:38:45;12.00;;;9.33;;
39620;SDS011;25309;48.686;9.170;2023-05-03T08:41:15;11.73;;;9.10;;
39620;SDS011;25309;48.686;9.170;2023-05-03T08:43:44;12.23;;;9.63;;
39620;SDS011;25309;48.686;9.170;2023-05-03T08:46:12;11.23;;;9.70;;
39620;SDS011;25309;48.686;9.170;2023-05-03T08:48:40;10.23;;;8.57;;
39620;SDS011;25309;48.686;9.170;2023-05-03T08:51:09;12.47;;;8.63;;
39620;SDS011;25309;48.686;9.170;2023-05-03T08:53:37;10.93;;;9.03;;
39620;SDS011;25309;48.686;9.170;2023-05-03T08:56:05;11.80;;;9.20;;
39620;SDS011;25309;48.686;9.170;2023-05-03T08:58:33;10.47;;;8.60;;
39620;SDS011;25309;48.686;9.170;2023-05-03T09:01:04;9.47;;;7.77;;
39620;SDS011;25309;48.686;9.170;2023-05-03T09:03:32;8.37;;;7.27;;
39620;SDS011;25309;48.686;9.170;2023-05-03T09:05:59;8.07;;;7.27;;
39620;SDS011;25309;48.686;9.170;2023-05-03T09:08:28;8.63;;;7.33;;
39620;SDS011;25309;48.686;9.170;2023-05-03T09:10:56;8.97;;;8.07;;
39620;SDS011;25309;48.686;9.170;2023-05-03T09:13:28;10.20;;;7.97;;
39620;SDS011;25309;48.686;9.170;2023-05-03T09:15:57;9.20;;;7.77;;
39620;SDS011;25309;48.686;9.170;2023-05-03T09:18:24;9.30;;;7.40;;
39620;SDS011;25309;48.686;9.170;2023-05-03T09:20:52;8.57;;;7.43;;
39620;SDS011;25309;48.686;9.170;2023-05-03T09:23:29;9.37;;;7.50;;
39620;SDS011;25309;48.686;9.170;2023-05-03T09:25:57;8.17;;;6.90;;
39620;SDS011;25309;48.686;9.170;2023-05-03T09:28:25;8.83;;;7.43;;
39620;SDS011;25309;48.686;9.170;2023-05-03T09:31:02;10.13;;;7.63;;
39620;SDS011;25309;48.686;9.170;2023-05-03T09:33:32;9.00;;;6.97;;
39620;SDS011;25309;48.686;9.170;2023-05-03T09:36:00;10.10;;;7.77;;
39620;SDS011;25309;48.686;9.170;2023-05-03T09:38:30;10.33;;;6.73;;
39620;SDS011;25309;48.686;9.170;2023-05-03T09:40:59;8.00;;;6.70;;
39620;SDS011;25309;48.686;9.170;2023-05-03T09:43:31;7.47;;;6.47;;
39620;SDS011;25309;48.686;9.170;2023-05-03T09:46:06;7.67;;;5.83;;
39620;SDS011;25309;48.686;9.170;2023-05-03T09:48:35;8.87;;;6.60;;
39620;SDS011;25309;48.686;9.170;2023-05-03T09:51:02;9.10;;;7.10;;
39620;SDS011;25309;48.686;9.170;2023-05-03T09:53:32;7.30;;;6.40;;
39620;SDS011;25309;48.686;9.170;2023-05-03T09:56:01;8.43;;;6.60;;
39620;SDS011;25309;48.686;9.170;2023-05-03T09:58:31;8.63;;;6.97;;
39620;SDS011;25309;48.686;9.170;2023-05-03T10:01:00;6.87;;;6.17;;
39620;SDS011;25309;48.686;9.170;2023-05-03T10:03:30;8.97;;;6.77;;
39620;SDS011;25309;48.686;9.170;2023-05-03T10:06:00;8.00;;;7.03;;
39620;SDS011;25309;48.686;9.170;2023-05-03T10:08:33;7.77;;;6.97;;
39620;SDS011;25309;48.686;9.170;2023-05-03T10:11:04;7.53;;;5.60;;
39620;SDS011;25309;48.686;9.170;2023-05-03T10:13:34;7.40;;;6.00;;
39620;SDS011;25309;48.686;9.170;2023-05-03T10:16:02;8.27;;;6.23;;
39620;SDS011;25309;48.686;9.170;2023-05-03T10:18:32;6.33;;;5.23;;
39620;SDS011;25309;48.686;9.170;2023-05-03T10:21:04;7.40;;;5.70;;
39620;SDS011;25309;48.686;9.170;2023-05-03T10:23:49;6.60;;;4.67;;
39620;SDS011;25309;48.686;9.170;2023-05-03T10:26:35;6.10;;;5.40;;
39620;SDS011;25309;48.686;9.170;2023-05-03T10:29:02;5.97;;;5.37;;
39620;SDS011;25309;48.686;9.170;2023-05-03T10:31:42;6.00;;;5.40;;
39620;SDS011;25309;48.686;9.170;2023-05-03T10:34:20;6.03;;;5.20;;
39620;SDS011;25309;48.686;9.170;2023-05-03T10:36:49;6.90;;;5.60;;
39620;SDS011;25309;48.686;9.170;2023-05-03T10:39:21;6.53;;;5.10;;
39620;SDS011;25309;48.686;9.170;2023-05-03T10:41:58;6.20;;;5.10;;
39620;SDS011;25309;48.686;9.170;2023-05-03T10:44:25;5.17;;;4.03;;
39620;SDS011;25309;48.686;9.170;2023-05-03T10:46:52;5.07;;;4.57;;
39620;SDS011;25309;48.686;9.170;2023-05-03T10:49:20;5.63;;;5.03;;
39620;SDS011;25309;48.686;9.170;2023-05-03T10:51:48;5.30;;;4.80;;
39620;SDS011;25309;48.686;9.170;2023-05-03T10:54:15;6.03;;;5.20;;
39620;SDS011;25309;48.686;9.170;2023-05-03T10:56:52;5.47;;;4.80;;
39620;SDS011;25309;48.686;9.170;2023-05-03T10:59:21;6.73;;;4.63;;
39620;SDS011;25309;48.686;9.170;2023-05-03T11:01:49;5.30;;;4.47;;
39620;SDS011;25309;48.686;9.170;2023-05-03T11:07:15;6.10;;;4.43;;
39620;SDS011;25309;48.686;9.170;2023-05-03T11:09:45;5.47;;;4.40;;
39620;SDS011;25309;48.686;9.170;2023-05-03T11:12:15;5.93;;;4.53;;
39620;SDS011;25309;48.686;9.170;2023-05-03T11:14:42;4.20;;;3.80;;
39620;SDS011;25309;48.686;9.170;2023-05-03T11:17:09;6.53;;;4.03;;
39620;SDS011;25309;48.686;9.170;2023-05-03T11:19:36;6.40;;;4.57;;
39620;SDS011;25309;48.686;9.170;2023-05-03T11:22:04;5.10;;;4.60;;
39620;SDS011;25309;48.686;9.170;2023-05-03T11:24:32;6.37;;;4.30;;
39620;SDS011;25309;48.686;9.170;2023-05-03T11:26:59;5.40;;;4.83;;
39620;SDS011;25309;48.686;9.170;2023-05-03T11:29:35;5.60;;;5.00;;
39620;SDS011;25309;48.686;9.170;2023-05-03T11:32:06;7.33;;;5.37;;
39620;SDS011;25309;48.686;9.170;2023-05-03T11:34:33;5.40;;;4.60;;
39620;SDS011;25309;48.686;9.170;2023-05-03T11:37:01;5.83;;;4.10;;
39620;SDS011;25309;48.686;9.170;2023-05-03T11:39:28;5.67;;;4.17;;
39620;SDS011;25309;48.686;9.170;2023-05-03T11:42:01;5.00;;;4.50;;
39620;SDS011;25309;48.686;9.170;2023-05-03T11:44:30;6.13;;;4.27;;
39620;SDS011;25309;48.686;9.170;2023-05-03T11:46:58;5.80;;;4.30;;
39620;SDS011;25309;48.686;9.170;2023-05-03T11:49:25;4.67;;;4.20;;
39620;SDS011;25309;48.686;9.170;2023-05-03T11:51:52;6.90;;;3.90;;
39620;SDS011;25309;48.686;9.170;2023-05-03T11:54:20;4.67;;;4.17;;
39620;SDS011;25309;48.686;9.170;2023-05-03T11:56:54;4.60;;;3.90;;
39620;SDS011;25309;48.686;9.170;2023-05-03T11:59:32;4.30;;;3.90;;
39620;SDS011;25309;48.686;9.170;2023-05-03T12:02:01;5.90;;;3.90;;
39620;SDS011;25309;48.686;9.170;2023-05-03T12:04:29;5.03;;;3.93;;
39620;SDS011;25309;48.686;9.170;2023-05-03T12:06:57;4.50;;;4.07;;
39620;SDS011;25309;48.686;9.170;2023-05-03T12:09:26;5.00;;;4.20;;
39620;SDS011;25309;48.686;9.170;2023-05-03T12:11:54;4.90;;;3.70;;
39620;SDS011;25309;48.686;9.170;2023-05-03T12:14:24;6.00;;;4.47;;
39620;SDS011;25309;48.686;9.170;2023-05-03T12:16:51;4.63;;;3.93;;
39620;SDS011;25309;48.686;9.170;2023-05-03T12:19:24;4.97;;;3.70;;
39620;SDS011;25309;48.686;9.170;2023-05-03T12:21:52;4.77;;;3.77;;
39620;SDS011;25309;48.686;9.170;2023-05-03T12:24:39;4.47;;;3.93;;
39620;SDS011;25309;48.686;9.170;2023-05-03T12:27:09;4.30;;;3.90;;
39620;SDS011;25309;48.686;9.170;2023-05-03T12:29:39;4.43;;;3.87;;
39620;SDS011;25309;48.686;9.170;2023-05-03T12:32:07;4.90;;;3.30;;
39620;SDS011;25309;48.686;9.170;2023-05-03T12:34:36;4.10;;;3.70;;
39620;SDS011;25309;48.686;9.170;2023-05-03T12:37:06;4.40;;;3.70;;
39620;SDS011;25309;48.686;9.170;2023-05-03T12:39:37;5.17;;;3.87;;
39620;SDS011;25309;48.686;9.170;2023-05-03T12:42:05;4.17;;;3.60;;
39620;SDS011;25309;48.686;9.170;2023-05-03T12:44:34;4.50;;;3.63;;
39620;SDS011;25309;48.686;9.170;2023-05-03T12:47:07;4.17;;;3.77;;
39620;SDS011;25309;48.686;9.170;2023-05-03T12:49:37;3.80;;;3.40;;
39620;SDS011;25309;48.686;9.170;2023-05-03T12:52:05;4.30;;;3.67;;
39620;SDS011;25309;48.686;9.170;2023-05-03T12:54:35;5.50;;;3.67;;
39620;SDS011;25309;48.686;9.170;2023-05-03T12:57:07;4.00;;;3.60;;
39620;SDS011;25309;48.686;9.170;2023-05-03T12:59:40;4.10;;;3.00;;
39620;SDS011;25309;48.686;9.170;2023-05-03T13:02:09;3.53;;;2.97;;
39620;SDS011;25309;48.686;9.170;2023-05-03T13:04:41;4.63;;;4.10;;
39620;SDS011;25309;48.686;9.170;2023-05-03T13:07:24;4.93;;;3.00;;
39620;SDS011;25309;48.686;9.170;2023-05-03T13:09:56;3.30;;;2.70;;
39620;SDS011;25309;48.686;9.170;2023-05-03T13:12:26;3.53;;;2.80;;
39620;SDS011;25309;48.686;9.170;2023-05-03T13:14:55;3.50;;;3.10;;
39620;SDS011;25309;48.686;9.170;2023-05-03T13:17:23;3.80;;;3.37;;
39620;SDS011;25309;48.686;9.170;2023-05-03T13:19:51;4.43;;;3.27;;
39620;SDS011;25309;48.686;9.170;2023-05-03T13:22:18;4.30;;;3.50;;
39620;SDS011;25309;48.686;9.170;2023-05-03T13:24:45;5.23;;;3.20;;
39620;SDS011;25309;48.686;9.170;2023-05-03T13:27:13;4.03;;;3.50;;
39620;SDS011;25309;48.686;9.170;2023-05-03T13:29:41;3.60;;;2.90;;
39620;SDS011;25309;48.686;9.170;2023-05-03T13:32:08;4.23;;;3.30;;
39620;SDS011;25309;48.686;9.170;2023-05-03T13:34:36;4.80;;;3.40;;
39620;SDS011;25309;48.686;9.170;2023-05-03T13:37:04;3.30;;;3.00;;
39620;SDS011;25309;48.686;9.170;2023-05-03T13:39:31;3.00;;;2.67;;
39620;SDS011;25309;48.686;9.170;2023-05-03T13:41:58;3.90;;;3.47;;
39620;SDS011;25309;48.686;9.170;2023-05-03T13:44:25;3.93;;;2.93;;
39620;SDS011;25309;48.686;9.170;2023-05-03T13:46:52;3.30;;;2.80;;
39620;SDS011;25309;48.686;9.170;2023-05-03T13:49:19;3.83;;;3.30;;
39620;SDS011;25309;48.686;9.170;2023-05-03T13:51:46;3.60;;;3.00;;
39620;SDS011;25309;48.686;9.170;2023-05-03T13:54:14;3.90;;;3.00;;
39620;SDS011;25309;48.686;9.170;2023-05-03T13:56:41;3.63;;;3.20;;
39620;SDS011;25309;48.686;9.170;2023-05-03T13:59:10;3.07;;;2.67;;
39620;SDS011;25309;48.686;9.170;2023-05-03T14:01:37;3.90;;;2.87;;
39620;SDS011;25309;48.686;9.170;2023-05-03T14:04:05;3.93;;;2.87;;
39620;SDS011;25309;48.686;9.170;2023-05-03T14:06:32;4.73;;;3.10;;
39620;SDS011;25309;48.686;9.170;2023-05-03T14:08:59;3.10;;;2.80;;
39620;SDS011;25309;48.686;9.170;2023-05-03T14:11:29;3.70;;;2.63;;
39620;SDS011;25309;48.686;9.170;2023-05-03T14:13:56;3.07;;;2.70;;
39620;SDS011;25309;48.686;9.170;2023-05-03T14:16:25;3.93;;;2.77;;
39620;SDS011;25309;48.686;9.170;2023-05-03T14:18:55;3.50;;;3.13;;
39620;SDS011;25309;48.686;9.170;2023-05-03T14:21:22;3.13;;;2.70;;
39620;SDS011;25309;48.686;9.170;2023-05-03T14:23:50;3.67;;;2.60;;
39620;SDS011;25309;48.686;9.170;2023-05-03T14:26:18;3.30;;;2.80;;
39620;SDS011;25309;48.686;9.170;2023-05-03T14:28:46;3.80;;;2.87;;
39620;SDS011;25309;48.686;9.170;2023-05-03T14:31:13;3.80;;;2.60;;
39620;SDS011;25309;48.686;9.170;2023-05-03T14:33:40;3.13;;;2.43;;
39620;SDS011;25309;48.686;9.170;2023-05-03T14:36:07;3.20;;;2.37;;
39620;SDS011;25309;48.686;9.170;2023-05-03T14:38:34;3.03;;;2.57;;
39620;SDS011;25309;48.686;9.170;2023-05-03T14:41:02;3.17;;;2.87;;
39620;SDS011;25309;48.686;9.170;2023-05-03T14:43:29;3.03;;;2.73;;
39620;SDS011;25309;48.686;9.170;2023-05-03T14:45:58;3.60;;;2.90;;
39620;SDS011;25309;48.686;9.170;2023-05-03T14:48:25;3.33;;;2.80;;
39620;SDS011;25309;48.686;9.170;2023-05-03T14:50:52;2.77;;;2.50;;
39620;SDS011;25309;48.686;9.170;2023-05-03T14:53:19;4.07;;;2.87;;
39620;SDS011;25309;48.686;9.170;2023-05-03T14:55:47;3.40;;;2.80;;